createdAt,value
2023-04-30T00:00:20.008Z,500.00
2023-04-30T00:01:20.013Z,500.00
2023-04-30T00:02:20.057Z,500.00
2023-04-30T00:03:20.144Z,424.00
2023-04-30T00:04:20.150Z,400.00
2023-04-30T00:05:20.070Z,400.00
2023-04-30T00:06:20.097Z,400.00
2023-04-30T00:07:20.074Z,400.00
2023-04-30T00:08:20.070Z,400.00
2023-04-30T00:09:20.095Z,414.00
2023-04-30T00:10:20.123Z,444.00
2023-04-30T00:11:20.164Z,478.00
2023-04-30T00:12:20.219Z,499.00
2023-04-30T00:13:20.278Z,506.00
2023-04-30T00:14:20.264Z,500.00
2023-04-30T00:15:20.292Z,500.00
2023-04-30T00:16:20.357Z,500.00
2023-04-30T00:17:20.365Z,502.00
2023-04-30T00:18:20.392Z,502.00
2023-04-30T00:19:20.399Z,501.00
2023-04-30T00:20:20.405Z,503.00
2023-04-30T00:21:20.432Z,500.00
2023-04-30T00:22:20.465Z,500.00
2023-04-30T00:23:20.494Z,500.00
2023-04-30T00:24:20.517Z,504.00
2023-04-30T00:25:20.506Z,500.00
2023-04-30T00:26:20.540Z,504.00
2023-04-30T00:27:20.522Z,500.00
2023-04-30T00:28:20.531Z,501.00
2023-04-30T00:29:20.569Z,510.00
2023-04-30T00:30:20.548Z,506.00
2023-04-30T00:31:20.653Z,501.00
2023-04-30T00:32:20.624Z,500.00
2023-04-30T00:33:20.638Z,505.00
2023-04-30T00:34:20.666Z,503.00
2023-04-30T00:35:20.664Z,502.00
2023-04-30T00:36:20.721Z,502.00
2023-04-30T00:37:20.753Z,501.00
2023-04-30T00:38:20.773Z,500.00
2023-04-30T00:39:20.825Z,507.00
2023-04-30T00:40:20.848Z,502.00
2023-04-30T00:41:20.912Z,500.00
2023-04-30T00:42:20.902Z,506.00
2023-04-30T00:43:20.941Z,503.00
2023-04-30T00:44:20.962Z,503.00
2023-04-30T00:45:21.104Z,500.00
2023-04-30T00:46:21.132Z,502.00
2023-04-30T00:47:21.079Z,503.00
2023-04-30T00:48:21.041Z,504.00
2023-04-30T00:49:21.085Z,502.00
2023-04-30T00:50:21.104Z,504.00
2023-04-30T00:51:21.136Z,509.00
2023-04-30T00:52:21.145Z,501.00
2023-04-30T00:53:21.175Z,501.00
2023-04-30T00:54:21.246Z,503.00
2023-04-30T00:55:21.239Z,505.00
2023-04-30T00:56:21.261Z,505.00
2023-04-30T00:57:21.285Z,503.00
2023-04-30T00:58:21.285Z,506.00
2023-04-30T00:59:21.334Z,503.00
2023-04-30T01:00:21.339Z,500.00
2023-04-30T01:01:21.474Z,507.00
2023-04-30T01:02:21.502Z,503.00
2023-04-30T01:03:21.488Z,504.00
2023-04-30T01:04:21.460Z,503.00
2023-04-30T01:05:21.492Z,507.00
2023-04-30T01:06:21.544Z,505.00
2023-04-30T01:07:21.543Z,501.00
2023-04-30T01:08:21.569Z,501.00
2023-04-30T01:09:21.583Z,504.00
2023-04-30T01:10:21.648Z,503.00
2023-04-30T01:11:21.625Z,506.00
2023-04-30T01:12:21.656Z,503.00
2023-04-30T01:13:21.693Z,509.00
2023-04-30T01:14:21.717Z,502.00
2023-04-30T01:15:21.728Z,502.00
2023-04-30T01:16:21.784Z,507.00
2023-04-30T01:17:21.827Z,503.00
2023-04-30T01:18:21.922Z,502.00
2023-04-30T01:19:21.857Z,501.00
2023-04-30T01:20:21.859Z,513.00
2023-04-30T01:21:21.869Z,500.00
2023-04-30T01:22:21.886Z,510.00
2023-04-30T01:23:21.928Z,502.00
2023-04-30T01:24:21.937Z,505.00
2023-04-30T01:25:21.968Z,500.00
2023-04-30T01:26:22.034Z,500.00
2023-04-30T01:27:22.056Z,507.00
2023-04-30T01:28:22.078Z,509.00
2023-04-30T01:29:22.130Z,505.00
2023-04-30T01:30:22.164Z,508.00
2023-04-30T01:31:22.234Z,506.00
2023-04-30T01:32:22.367Z,507.00
2023-04-30T01:33:22.311Z,505.00
2023-04-30T01:34:22.322Z,500.00
2023-04-30T01:35:22.361Z,504.00
2023-04-30T01:36:22.400Z,502.00
2023-04-30T01:37:22.438Z,500.00
2023-04-30T01:38:22.470Z,505.00
2023-04-30T01:39:22.510Z,507.00
2023-04-30T01:40:22.556Z,505.00
2023-04-30T01:41:22.586Z,504.00
2023-04-30T01:42:22.650Z,506.00
2023-04-30T01:43:22.679Z,503.00
2023-04-30T01:44:22.709Z,505.00
2023-04-30T01:45:22.742Z,506.00
2023-04-30T01:46:22.838Z,503.00
2023-04-30T01:47:22.803Z,508.00
2023-04-30T01:48:22.803Z,505.00
2023-04-30T01:49:22.838Z,509.00
2023-04-30T01:50:22.825Z,505.00
2023-04-30T01:51:22.836Z,509.00
2023-04-30T01:52:22.858Z,500.00
2023-04-30T01:53:22.889Z,509.00
2023-04-30T01:54:22.928Z,501.00
2023-04-30T01:55:22.974Z,504.00
2023-04-30T01:56:23.011Z,505.00
2023-04-30T01:57:23.067Z,505.00
2023-04-30T01:58:23.103Z,506.00
2023-04-30T01:59:23.140Z,502.00
2023-04-30T02:00:23.182Z,503.00
2023-04-30T02:01:23.242Z,505.00
2023-04-30T02:02:23.362Z,504.00
2023-04-30T02:03:23.395Z,505.00
2023-04-30T02:04:23.348Z,506.00
2023-04-30T02:05:23.419Z,507.00
2023-04-30T02:06:23.511Z,502.00
2023-04-30T02:07:23.485Z,503.00
2023-04-30T02:08:23.522Z,509.00
2023-04-30T02:09:23.568Z,501.00
2023-04-30T02:10:23.650Z,504.00
2023-04-30T02:11:23.654Z,506.00
2023-04-30T02:12:23.692Z,502.00
2023-04-30T02:13:23.733Z,504.00
2023-04-30T02:14:23.743Z,505.00
2023-04-30T02:15:23.768Z,505.00
2023-04-30T02:16:23.899Z,511.00
2023-04-30T02:17:23.831Z,505.00
2023-04-30T02:18:23.892Z,505.00
2023-04-30T02:19:23.921Z,508.00
2023-04-30T02:20:23.963Z,510.00
2023-04-30T02:21:24.013Z,506.00
2023-04-30T02:22:23.994Z,506.00
2023-04-30T02:23:24.054Z,505.00
2023-04-30T02:24:24.088Z,506.00
2023-04-30T02:25:24.133Z,507.00
2023-04-30T02:26:24.180Z,510.00
2023-04-30T02:27:24.225Z,507.00
2023-04-30T02:28:24.269Z,507.00
2023-04-30T02:29:24.320Z,503.00
2023-04-30T02:30:24.365Z,505.00
2023-04-30T02:31:24.449Z,507.00
2023-04-30T02:32:24.486Z,503.00
2023-04-30T02:33:24.493Z,507.00
2023-04-30T02:34:24.544Z,505.00
2023-04-30T02:35:24.577Z,511.00
2023-04-30T02:36:24.625Z,506.00
2023-04-30T02:37:24.685Z,505.00
2023-04-30T02:38:24.703Z,505.00
2023-04-30T02:39:24.751Z,502.00
2023-04-30T02:40:24.793Z,507.00
2023-04-30T02:41:24.821Z,503.00
2023-04-30T02:42:24.864Z,507.00
2023-04-30T02:43:24.900Z,502.00
2023-04-30T02:44:24.946Z,500.00
2023-04-30T02:45:25.008Z,500.00
2023-04-30T02:46:25.075Z,509.00
2023-04-30T02:47:25.074Z,504.00
2023-04-30T02:48:25.094Z,500.00
2023-04-30T02:49:25.135Z,508.00
2023-04-30T02:50:25.159Z,504.00
2023-04-30T02:51:25.183Z,506.00
2023-04-30T02:52:25.192Z,504.00
2023-04-30T02:53:25.263Z,506.00
2023-04-30T02:54:25.281Z,505.00
2023-04-30T02:55:25.333Z,510.00
2023-04-30T02:56:25.363Z,505.00
2023-04-30T02:57:25.427Z,507.00
2023-04-30T02:58:25.452Z,508.00
2023-04-30T02:59:25.484Z,504.00
2023-04-30T03:00:25.536Z,508.00
2023-04-30T03:01:25.604Z,504.00
2023-04-30T03:02:25.657Z,506.00
2023-04-30T03:03:25.726Z,514.00
2023-04-30T03:04:25.704Z,509.00
2023-04-30T03:05:25.740Z,503.00
2023-04-30T03:06:25.827Z,503.00
2023-04-30T03:07:25.811Z,501.00
2023-04-30T03:08:25.821Z,504.00
2023-04-30T03:09:25.899Z,502.00
2023-04-30T03:10:25.913Z,509.00
2023-04-30T03:11:25.943Z,506.00
2023-04-30T03:12:25.977Z,511.00
2023-04-30T03:13:26.019Z,507.00
2023-04-30T03:14:26.041Z,505.00
2023-04-30T03:15:26.090Z,509.00
2023-04-30T03:16:26.223Z,503.00
2023-04-30T03:17:26.212Z,508.00
2023-04-30T03:18:26.199Z,507.00
2023-04-30T03:19:26.239Z,507.00
2023-04-30T03:20:26.282Z,507.00
2023-04-30T03:21:26.329Z,506.00
2023-04-30T03:22:26.369Z,500.00
2023-04-30T03:23:26.423Z,507.00
2023-04-30T03:24:26.465Z,507.00
2023-04-30T03:25:26.622Z,503.00
2023-04-30T03:26:26.541Z,505.00
2023-04-30T03:27:26.579Z,505.00
2023-04-30T03:28:26.661Z,503.00
2023-04-30T03:29:26.678Z,509.00
2023-04-30T03:30:26.724Z,509.00
2023-04-30T03:31:26.818Z,507.00
2023-04-30T03:32:26.828Z,503.00
2023-04-30T03:33:26.878Z,509.00
2023-04-30T03:34:26.886Z,507.00
2023-04-30T03:35:26.907Z,509.00
2023-04-30T03:36:26.945Z,504.00
2023-04-30T03:37:26.983Z,505.00
2023-04-30T03:38:27.032Z,508.00
2023-04-30T03:39:27.073Z,508.00
2023-04-30T03:40:27.135Z,500.00
2023-04-30T03:41:27.209Z,502.00
2023-04-30T03:42:27.228Z,504.00
2023-04-30T03:43:27.289Z,503.00
2023-04-30T03:44:27.343Z,508.00
2023-04-30T03:45:27.372Z,509.00
2023-04-30T03:46:27.458Z,511.00
2023-04-30T03:47:27.551Z,505.00
2023-04-30T03:48:27.503Z,507.00
2023-04-30T03:49:27.551Z,509.00
2023-04-30T03:50:27.602Z,500.00
2023-04-30T03:51:27.655Z,503.00
2023-04-30T03:52:27.693Z,505.00
2023-04-30T03:53:27.737Z,509.00
2023-04-30T03:54:27.784Z,504.00
2023-04-30T03:55:27.819Z,500.00
2023-04-30T03:56:27.832Z,509.00
2023-04-30T03:57:27.874Z,506.00
2023-04-30T03:58:27.884Z,511.00
2023-04-30T03:59:27.919Z,506.00
2023-04-30T04:00:27.974Z,508.00
2023-04-30T04:01:28.016Z,507.00
2023-04-30T04:02:28.127Z,507.00
2023-04-30T04:03:28.118Z,503.00
2023-04-30T04:04:28.243Z,503.00
2023-04-30T04:05:28.178Z,507.00
2023-04-30T04:06:28.265Z,507.00
2023-04-30T04:07:28.273Z,505.00
2023-04-30T04:08:28.307Z,505.00
2023-04-30T04:09:28.355Z,504.00
2023-04-30T04:10:28.389Z,509.00
2023-04-30T04:11:28.467Z,508.00
2023-04-30T04:12:28.487Z,508.00
2023-04-30T04:13:28.561Z,510.00
2023-04-30T04:14:28.563Z,508.00
2023-04-30T04:15:28.611Z,508.00
2023-04-30T04:16:28.754Z,505.00
2023-04-30T04:17:28.727Z,503.00
2023-04-30T04:18:28.737Z,506.00
2023-04-30T04:19:28.787Z,509.00
2023-04-30T04:20:28.831Z,508.00
2023-04-30T04:21:28.864Z,508.00
2023-04-30T04:22:28.906Z,507.00
2023-04-30T04:23:28.917Z,505.00
2023-04-30T04:24:28.945Z,503.00
2023-04-30T04:25:28.976Z,509.00
2023-04-30T04:26:29.044Z,509.00
2023-04-30T04:27:29.076Z,505.00
2023-04-30T04:28:29.116Z,504.00
2023-04-30T04:29:29.186Z,502.00
2023-04-30T04:30:29.224Z,504.00
2023-04-30T04:31:29.251Z,513.00
2023-04-30T04:32:29.280Z,507.00
2023-04-30T04:33:29.311Z,507.00
2023-04-30T04:34:29.367Z,506.00
2023-04-30T04:35:29.414Z,508.00
2023-04-30T04:36:29.449Z,509.00
2023-04-30T04:37:29.500Z,504.00
2023-04-30T04:38:29.547Z,510.00
2023-04-30T04:39:29.601Z,508.00
2023-04-30T04:40:31.163Z,506.00
2023-04-30T04:41:29.639Z,509.00
2023-04-30T04:42:29.627Z,515.00
2023-04-30T04:43:29.616Z,508.00
2023-04-30T04:44:29.611Z,512.00
2023-04-30T04:45:29.631Z,505.00
2023-04-30T04:46:29.676Z,506.00
2023-04-30T04:47:29.616Z,503.00
2023-04-30T04:48:29.582Z,505.00
2023-04-30T04:49:29.571Z,505.00
2023-04-30T04:50:29.567Z,505.00
2023-04-30T04:51:29.558Z,503.00
2023-04-30T04:52:29.548Z,505.00
2023-04-30T04:53:29.544Z,507.00
2023-04-30T04:54:29.537Z,505.00
2023-04-30T04:55:29.525Z,506.00
2023-04-30T04:56:29.520Z,509.00
2023-04-30T04:57:29.510Z,510.00
2023-04-30T04:58:29.509Z,501.00
2023-04-30T04:59:29.498Z,504.00
2023-04-30T05:00:29.484Z,507.00
2023-04-30T05:01:29.569Z,506.00
2023-04-30T05:02:29.533Z,504.00
2023-04-30T05:03:29.613Z,502.00
2023-04-30T05:04:29.482Z,508.00
2023-04-30T05:05:29.460Z,503.00
2023-04-30T05:06:29.456Z,507.00
2023-04-30T05:07:29.440Z,507.00
2023-04-30T05:08:29.451Z,505.00
2023-04-30T05:09:29.431Z,503.00
2023-04-30T05:10:29.428Z,507.00
2023-04-30T05:11:29.419Z,505.00
2023-04-30T05:12:29.414Z,509.00
2023-04-30T05:13:29.399Z,506.00
2023-04-30T05:14:29.398Z,504.00
2023-04-30T05:15:29.437Z,504.00
2023-04-30T05:16:29.498Z,504.00
2023-04-30T05:17:29.720Z,507.00
2023-04-30T05:18:29.544Z,507.00
2023-04-30T05:19:29.584Z,503.00
2023-04-30T05:20:29.621Z,506.00
2023-04-30T05:21:29.708Z,505.00
2023-04-30T05:22:29.711Z,503.00
2023-04-30T05:23:29.741Z,504.00
2023-04-30T05:24:29.760Z,503.00
2023-04-30T05:25:29.783Z,507.00
2023-04-30T05:26:29.819Z,506.00
2023-04-30T05:27:29.846Z,504.00
2023-04-30T05:28:29.890Z,506.00
2023-04-30T05:29:29.945Z,504.00
2023-04-30T05:30:29.996Z,506.00
2023-04-30T05:31:30.082Z,506.00
2023-04-30T05:32:30.110Z,507.00
2023-04-30T05:33:30.126Z,507.00
2023-04-30T05:34:30.145Z,504.00
2023-04-30T05:35:30.189Z,505.00
2023-04-30T05:36:30.239Z,505.00
2023-04-30T05:37:30.282Z,505.00
2023-04-30T05:38:30.302Z,504.00
2023-04-30T05:39:30.331Z,508.00
2023-04-30T05:40:30.362Z,505.00
2023-04-30T05:41:30.381Z,502.00
2023-04-30T05:42:30.413Z,507.00
2023-04-30T05:43:30.424Z,505.00
2023-04-30T05:44:30.518Z,505.00
2023-04-30T05:45:30.532Z,508.00
2023-04-30T05:46:30.618Z,506.00
2023-04-30T05:47:30.582Z,506.00
2023-04-30T05:48:30.622Z,507.00
2023-04-30T05:49:30.675Z,504.00
2023-04-30T05:50:30.670Z,507.00
2023-04-30T05:51:30.721Z,506.00
2023-04-30T05:52:30.777Z,508.00
2023-04-30T05:53:30.806Z,502.00
2023-04-30T05:54:30.844Z,506.00
2023-04-30T05:55:30.900Z,506.00
2023-04-30T05:56:30.897Z,507.00
2023-04-30T05:57:30.934Z,507.00
2023-04-30T05:58:30.968Z,509.00
2023-04-30T05:59:31.024Z,507.00
2023-04-30T06:00:31.060Z,505.00
2023-04-30T06:01:31.111Z,504.00
2023-04-30T06:02:31.270Z,508.00
2023-04-30T06:03:31.157Z,505.00
2023-04-30T06:04:31.188Z,507.00
2023-04-30T06:05:31.257Z,505.00
2023-04-30T06:06:31.327Z,503.00
2023-04-30T06:07:31.268Z,506.00
2023-04-30T06:08:31.312Z,503.00
2023-04-30T06:09:31.344Z,510.00
2023-04-30T06:10:31.367Z,504.00
2023-04-30T06:11:31.407Z,500.00
2023-04-30T06:12:31.430Z,510.00
2023-04-30T06:13:31.454Z,506.00
2023-04-30T06:14:31.477Z,508.00
2023-04-30T06:15:31.499Z,507.00
2023-04-30T06:16:31.609Z,508.00
2023-04-30T06:17:31.608Z,510.00
2023-04-30T06:18:31.642Z,506.00
2023-04-30T06:19:31.673Z,504.00
2023-04-30T06:20:31.701Z,505.00
2023-04-30T06:21:31.775Z,505.00
2023-04-30T06:22:31.786Z,509.00
2023-04-30T06:23:31.828Z,508.00
2023-04-30T06:24:31.870Z,511.00
2023-04-30T06:25:31.928Z,503.00
2023-04-30T06:26:31.964Z,508.00
2023-04-30T06:27:31.990Z,509.00
2023-04-30T06:28:32.035Z,505.00
2023-04-30T06:29:32.094Z,507.00
2023-04-30T06:30:32.110Z,507.00
2023-04-30T06:31:32.331Z,502.00
2023-04-30T06:32:32.219Z,505.00
2023-04-30T06:33:32.252Z,505.00
2023-04-30T06:34:32.267Z,502.00
2023-04-30T06:35:32.305Z,504.00
2023-04-30T06:36:32.366Z,506.00
2023-04-30T06:37:33.453Z,510.00
2023-04-30T06:38:32.425Z,506.00
2023-04-30T06:39:32.482Z,506.00
2023-04-30T06:40:32.513Z,505.00
2023-04-30T06:41:32.541Z,508.00
2023-04-30T06:42:32.583Z,511.00
2023-04-30T06:43:32.618Z,503.00
2023-04-30T06:44:32.664Z,506.00
2023-04-30T06:45:32.715Z,500.00
2023-04-30T06:46:32.730Z,505.00
2023-04-30T06:47:32.819Z,506.00
2023-04-30T06:48:32.793Z,502.00
2023-04-30T06:49:32.855Z,505.00
2023-04-30T06:50:32.878Z,508.00
2023-04-30T06:51:32.914Z,506.00
2023-04-30T06:52:32.952Z,505.00
2023-04-30T06:53:33.026Z,504.00
2023-04-30T06:54:33.041Z,501.00
2023-04-30T06:55:33.075Z,505.00
2023-04-30T06:56:33.113Z,504.00
2023-04-30T06:57:33.129Z,506.00
2023-04-30T06:58:33.178Z,506.00
2023-04-30T06:59:33.224Z,503.00
2023-04-30T07:00:33.262Z,509.00
2023-04-30T07:01:33.325Z,504.00
2023-04-30T07:02:33.431Z,505.00
2023-04-30T07:03:33.502Z,511.00
2023-04-30T07:04:33.403Z,509.00
2023-04-30T07:05:33.471Z,508.00
2023-04-30T07:06:33.528Z,506.00
2023-04-30T07:07:33.516Z,502.00
2023-04-30T07:08:33.525Z,508.00
2023-04-30T07:09:33.569Z,506.00
2023-04-30T07:10:33.573Z,509.00
2023-04-30T07:11:33.565Z,507.00
2023-04-30T07:12:33.577Z,507.00
2023-04-30T07:13:33.586Z,510.00
2023-04-30T07:14:33.593Z,502.00
2023-04-30T07:15:33.655Z,503.00
2023-04-30T07:16:33.906Z,509.00
2023-04-30T07:17:33.711Z,507.00
2023-04-30T07:18:33.724Z,506.00
2023-04-30T07:19:33.744Z,514.00
2023-04-30T07:20:33.780Z,506.00
2023-04-30T07:21:33.809Z,509.00
2023-04-30T07:22:33.839Z,507.00
2023-04-30T07:23:33.884Z,511.00
2023-04-30T07:24:33.912Z,510.00
2023-04-30T07:25:34.163Z,508.00
2023-04-30T07:26:33.986Z,512.00
2023-04-30T07:27:34.010Z,509.00
2023-04-30T07:28:34.056Z,505.00
2023-04-30T07:29:34.082Z,510.00
2023-04-30T07:30:34.112Z,504.00
2023-04-30T07:31:34.210Z,509.00
2023-04-30T07:32:34.209Z,505.00
2023-04-30T07:33:34.210Z,512.00
2023-04-30T07:34:34.223Z,508.00
2023-04-30T07:35:34.258Z,509.00
2023-04-30T07:36:34.293Z,512.00
2023-04-30T07:37:35.973Z,505.00
2023-04-30T07:38:34.318Z,511.00
2023-04-30T07:39:34.330Z,512.00
2023-04-30T07:40:35.825Z,512.00
2023-04-30T07:41:34.345Z,512.00
2023-04-30T07:42:34.280Z,512.00
2023-04-30T07:43:34.278Z,513.00
2023-04-30T07:44:34.266Z,510.00
2023-04-30T07:45:34.263Z,508.00
2023-04-30T07:46:34.412Z,508.00
2023-04-30T07:47:34.296Z,511.00
2023-04-30T07:48:34.241Z,508.00
2023-04-30T07:49:34.225Z,504.00
2023-04-30T07:50:34.449Z,506.00
2023-04-30T07:51:34.242Z,509.00
2023-04-30T07:52:34.217Z,508.00
2023-04-30T07:53:34.207Z,508.00
2023-04-30T07:54:34.202Z,508.00
2023-04-30T07:55:34.200Z,505.00
2023-04-30T07:56:34.185Z,506.00
2023-04-30T07:57:34.204Z,506.00
2023-04-30T07:58:34.174Z,505.00
2023-04-30T07:59:34.183Z,508.00
2023-04-30T08:00:34.174Z,502.00
2023-04-30T08:01:34.283Z,507.00
2023-04-30T08:02:34.405Z,505.00
2023-04-30T08:03:34.269Z,504.00
2023-04-30T08:04:34.430Z,502.00
2023-04-30T08:05:34.155Z,502.00
2023-04-30T08:06:34.178Z,506.00
2023-04-30T08:07:34.125Z,505.00
2023-04-30T08:08:34.112Z,504.00
2023-04-30T08:09:34.106Z,506.00
2023-04-30T08:10:34.635Z,507.00
2023-04-30T08:11:34.099Z,506.00
2023-04-30T08:12:34.087Z,509.00
2023-04-30T08:13:34.100Z,506.00
2023-04-30T08:14:34.082Z,506.00
2023-04-30T08:15:34.073Z,511.00
2023-04-30T08:16:34.082Z,508.00
2023-04-30T08:17:34.069Z,510.00
2023-04-30T08:18:34.044Z,506.00
2023-04-30T08:19:34.039Z,507.00
2023-04-30T08:20:34.874Z,508.00
2023-04-30T08:21:34.142Z,508.00
2023-04-30T08:22:34.152Z,506.00
2023-04-30T08:23:34.173Z,502.00
2023-04-30T08:24:34.201Z,510.00
2023-04-30T08:25:34.210Z,506.00
2023-04-30T08:26:34.202Z,504.00
2023-04-30T08:27:34.201Z,506.00
2023-04-30T08:28:34.204Z,507.00
2023-04-30T08:29:34.227Z,507.00
2023-04-30T08:30:34.201Z,506.00
2023-04-30T08:31:34.264Z,507.00
2023-04-30T08:32:34.284Z,503.00
2023-04-30T08:33:34.276Z,505.00
2023-04-30T08:34:34.286Z,506.00
2023-04-30T08:35:34.295Z,507.00
2023-04-30T08:36:34.286Z,507.00
2023-04-30T08:37:34.300Z,510.00
2023-04-30T08:38:34.300Z,506.00
2023-04-30T08:39:34.313Z,504.00
2023-04-30T08:40:50.189Z,508.00
2023-04-30T08:41:34.335Z,508.00
2023-04-30T08:42:34.319Z,509.00
2023-04-30T08:43:34.308Z,509.00
2023-04-30T08:44:34.302Z,512.00
2023-04-30T08:45:34.332Z,510.00
2023-04-30T08:46:34.346Z,510.00
2023-04-30T08:47:34.300Z,509.00
2023-04-30T08:48:34.284Z,507.00
2023-04-30T08:49:34.263Z,509.00
2023-04-30T08:50:34.273Z,508.00
2023-04-30T08:51:34.249Z,508.00
2023-04-30T08:52:34.251Z,504.00
2023-04-30T08:53:34.238Z,509.00
2023-04-30T08:54:34.230Z,509.00
2023-04-30T08:55:34.246Z,505.00
2023-04-30T08:56:34.215Z,509.00
2023-04-30T08:57:34.210Z,506.00
2023-04-30T08:58:34.213Z,505.00
2023-04-30T08:59:34.212Z,508.00
2023-04-30T09:00:34.194Z,508.00
2023-04-30T09:01:34.220Z,505.00
2023-04-30T09:02:34.244Z,507.00
2023-04-30T09:03:34.285Z,506.00
2023-04-30T09:04:34.165Z,505.00
2023-04-30T09:05:34.163Z,507.00
2023-04-30T09:06:34.202Z,501.00
2023-04-30T09:07:34.144Z,506.00
2023-04-30T09:08:34.133Z,505.00
2023-04-30T09:09:34.131Z,506.00
2023-04-30T09:10:34.133Z,508.00
2023-04-30T09:11:34.122Z,508.00
2023-04-30T09:12:34.105Z,507.00
2023-04-30T09:13:34.099Z,505.00
2023-04-30T09:14:34.091Z,505.00
2023-04-30T09:15:34.217Z,507.00
2023-04-30T09:16:34.138Z,503.00
2023-04-30T09:17:34.195Z,506.00
2023-04-30T09:18:34.062Z,505.00
2023-04-30T09:19:34.053Z,506.00
2023-04-30T09:20:34.056Z,505.00
2023-04-30T09:21:34.050Z,507.00
2023-04-30T09:22:34.035Z,506.00
2023-04-30T09:23:34.736Z,501.00
2023-04-30T09:24:34.018Z,508.00
2023-04-30T09:25:34.018Z,503.00
2023-04-30T09:26:34.030Z,504.00
2023-04-30T09:27:34.003Z,508.00
2023-04-30T09:28:34.000Z,507.00
2023-04-30T09:29:34.288Z,505.00
2023-04-30T09:30:33.986Z,504.00
2023-04-30T09:31:34.051Z,507.00
2023-04-30T09:32:34.011Z,506.00
2023-04-30T09:33:33.989Z,501.00
2023-04-30T09:34:33.949Z,502.00
2023-04-30T09:35:33.987Z,504.00
2023-04-30T09:36:33.945Z,503.00
2023-04-30T09:37:33.929Z,506.00
2023-04-30T09:38:33.919Z,504.00
2023-04-30T09:39:33.923Z,506.00
2023-04-30T09:40:33.911Z,504.00
2023-04-30T09:41:33.899Z,504.00
2023-04-30T09:42:33.932Z,504.00
2023-04-30T09:43:33.946Z,507.00
2023-04-30T09:44:33.951Z,510.00
2023-04-30T09:45:33.967Z,510.00
2023-04-30T09:46:34.020Z,507.00
2023-04-30T09:47:34.058Z,507.00
2023-04-30T09:48:34.096Z,510.00
2023-04-30T09:49:34.069Z,508.00
2023-04-30T09:50:34.044Z,507.00
2023-04-30T09:51:34.061Z,503.00
2023-04-30T09:52:34.069Z,508.00
2023-04-30T09:53:34.089Z,507.00
2023-04-30T09:54:34.081Z,506.00
2023-04-30T09:55:34.093Z,506.00
2023-04-30T09:56:34.104Z,505.00
2023-04-30T09:57:34.112Z,506.00
2023-04-30T09:58:34.127Z,506.00
2023-04-30T09:59:34.163Z,501.00
2023-04-30T10:00:34.180Z,504.00
2023-04-30T10:01:34.174Z,501.00
2023-04-30T10:02:34.197Z,503.00
2023-04-30T10:03:34.189Z,503.00
2023-04-30T10:04:34.183Z,504.00
2023-04-30T10:05:34.236Z,506.00
2023-04-30T10:06:34.265Z,505.00
2023-04-30T10:07:34.226Z,507.00
2023-04-30T10:08:34.238Z,504.00
2023-04-30T10:09:34.246Z,505.00
2023-04-30T10:10:34.261Z,508.00
2023-04-30T10:11:34.268Z,506.00
2023-04-30T10:12:34.273Z,504.00
2023-04-30T10:13:34.283Z,508.00
2023-04-30T10:14:34.283Z,508.00
2023-04-30T10:15:34.295Z,506.00
2023-04-30T10:16:34.329Z,503.00
2023-04-30T10:17:34.350Z,504.00
2023-04-30T10:18:34.334Z,502.00
2023-04-30T10:19:34.326Z,505.00
2023-04-30T10:20:34.338Z,504.00
2023-04-30T10:21:34.369Z,506.00
2023-04-30T10:22:34.351Z,508.00
2023-04-30T10:23:34.363Z,504.00
2023-04-30T10:24:34.377Z,504.00
2023-04-30T10:25:34.379Z,504.00
2023-04-30T10:26:34.394Z,505.00
2023-04-30T10:27:34.385Z,506.00
2023-04-30T10:28:34.391Z,503.00
2023-04-30T10:29:34.394Z,503.00
2023-04-30T10:30:34.436Z,503.00
2023-04-30T10:31:34.556Z,507.00
2023-04-30T10:32:34.449Z,508.00
2023-04-30T10:33:34.451Z,503.00
2023-04-30T10:34:34.441Z,502.00
2023-04-30T10:35:34.443Z,506.00
2023-04-30T10:36:34.444Z,505.00
2023-04-30T10:37:34.502Z,504.00
2023-04-30T10:38:34.462Z,508.00
2023-04-30T10:39:34.481Z,503.00
2023-04-30T10:40:34.463Z,504.00
2023-04-30T10:41:34.476Z,504.00
2023-04-30T10:42:34.496Z,506.00
2023-04-30T10:43:34.471Z,508.00
2023-04-30T10:44:34.467Z,505.00
2023-04-30T10:45:34.469Z,504.00
2023-04-30T10:46:34.497Z,503.00
2023-04-30T10:47:34.488Z,504.00
2023-04-30T10:48:34.456Z,506.00
2023-04-30T10:49:34.462Z,506.00
2023-04-30T10:50:34.453Z,508.00
2023-04-30T10:51:34.460Z,508.00
2023-04-30T10:52:34.452Z,505.00
2023-04-30T10:53:34.584Z,507.00
2023-04-30T10:54:34.467Z,503.00
2023-04-30T10:55:34.450Z,507.00
2023-04-30T10:56:34.457Z,506.00
2023-04-30T10:57:34.447Z,506.00
2023-04-30T10:58:34.467Z,503.00
2023-04-30T10:59:34.458Z,505.00
2023-04-30T11:00:34.460Z,502.00
2023-04-30T11:01:34.498Z,509.00
2023-04-30T11:02:34.510Z,505.00
2023-04-30T11:03:34.480Z,506.00
2023-04-30T11:04:34.502Z,505.00
2023-04-30T11:05:34.482Z,501.00
2023-04-30T11:06:34.530Z,504.00
2023-04-30T11:07:34.485Z,506.00
2023-04-30T11:08:34.491Z,506.00
2023-04-30T11:09:34.506Z,504.00
2023-04-30T11:10:34.480Z,505.00
2023-04-30T11:11:34.487Z,506.00
2023-04-30T11:12:34.488Z,502.00
2023-04-30T11:13:34.479Z,505.00
2023-04-30T11:14:34.489Z,508.00
2023-04-30T11:15:34.585Z,508.00
2023-04-30T11:16:34.755Z,503.00
2023-04-30T11:17:34.536Z,506.00
2023-04-30T11:18:34.512Z,503.00
2023-04-30T11:19:34.507Z,507.00
2023-04-30T11:20:34.501Z,504.00
2023-04-30T11:21:34.510Z,507.00
2023-04-30T11:22:34.518Z,508.00
2023-04-30T11:24:33.508Z,506.00
2023-04-30T11:25:34.526Z,507.00
2023-04-30T11:26:34.494Z,504.00
2023-04-30T11:27:34.488Z,507.00
2023-04-30T11:28:34.485Z,506.00
2023-04-30T11:29:34.557Z,505.00
2023-04-30T11:30:34.474Z,506.00
2023-04-30T11:31:34.525Z,506.00
2023-04-30T11:32:34.503Z,506.00
2023-04-30T11:33:34.451Z,501.00
2023-04-30T11:34:34.438Z,506.00
2023-04-30T11:35:34.429Z,500.00
2023-04-30T11:36:34.449Z,504.00
2023-04-30T11:37:34.416Z,508.00
2023-04-30T11:38:34.407Z,511.00
2023-04-30T11:39:34.402Z,507.00
2023-04-30T11:40:34.404Z,505.00
2023-04-30T11:41:34.415Z,506.00
2023-04-30T11:42:34.386Z,507.00
2023-04-30T11:43:34.385Z,504.00
2023-04-30T11:44:34.366Z,510.00
2023-04-30T11:45:34.358Z,505.00
2023-04-30T11:46:34.408Z,505.00
2023-04-30T11:47:34.369Z,502.00
2023-04-30T11:48:34.339Z,507.00
2023-04-30T11:49:34.331Z,505.00
2023-04-30T11:50:34.329Z,506.00
2023-04-30T11:51:34.306Z,505.00
2023-04-30T11:52:34.306Z,509.00
2023-04-30T11:53:34.307Z,509.00
2023-04-30T11:54:34.293Z,508.00
2023-04-30T11:55:34.297Z,503.00
2023-04-30T11:56:34.280Z,507.00
2023-04-30T11:57:34.299Z,507.00
2023-04-30T11:58:34.281Z,506.00
2023-04-30T11:59:34.257Z,505.00
2023-04-30T12:00:34.252Z,504.00
2023-04-30T12:01:34.273Z,507.00
2023-04-30T12:02:34.393Z,512.00
2023-04-30T12:03:34.378Z,512.00
2023-04-30T12:04:34.407Z,508.00
2023-04-30T12:05:34.215Z,508.00
2023-04-30T12:06:34.247Z,510.00
2023-04-30T12:07:34.206Z,510.00
2023-04-30T12:08:34.214Z,509.00
2023-04-30T12:09:34.188Z,505.00
2023-04-30T12:10:34.188Z,507.00
2023-04-30T12:11:34.169Z,510.00
2023-04-30T12:12:34.165Z,505.00
2023-04-30T12:13:34.286Z,510.00
2023-04-30T12:14:34.154Z,511.00
2023-04-30T12:15:34.148Z,506.00
2023-04-30T12:16:34.155Z,507.00
2023-04-30T12:17:34.225Z,505.00
2023-04-30T12:18:34.129Z,508.00
2023-04-30T12:19:34.112Z,509.00
2023-04-30T12:20:34.117Z,508.00
2023-04-30T12:21:34.124Z,509.00
2023-04-30T12:22:34.135Z,510.00
2023-04-30T12:23:34.153Z,511.00
2023-04-30T12:24:34.151Z,505.00
2023-04-30T12:25:34.156Z,512.00
2023-04-30T12:26:34.159Z,511.00
2023-04-30T12:27:34.170Z,510.00
2023-04-30T12:28:34.153Z,506.00
2023-04-30T12:29:34.192Z,509.00